Time;durP1;ratioP1;P1;durP2;ratioP2;P2;SDS_P1;SDS_P2;PMS_P1;PMS_P2;Temp;Humidity;BMP_temperature;BMP_pressure;BME280_temperature;BME280_humidity;BME280_pressure;Samples;Min_cycle;Max_cycle;Signal;HPM_P1;HPM_P2
2022/07/04 00:02:19;;;;;;;0.38;0.32;;;16.80;99.90;;;;;;5041499;28;20037;-78
2022/07/04 00:04:44;;;;;;;0.50;0.30;;;;;;;;;;5040091;28;20033;-78
2022/07/04 00:07:10;;;;;;;0.70;0.40;;;;;;;;;;5042333;28;20029;-79
2022/07/04 00:09:36;;;;;;;0.75;0.30;;;;;;;;;;5041660;28;20075;-78
2022/07/04 00:12:02;;;;;;;0.77;0.30;;;16.80;99.90;;;;;;5045549;28;20055;-78
2022/07/04 00:14:28;;;;;;;1.10;0.40;;;;;;;;;;5040633;28;20468;-78
2022/07/04 00:16:54;;;;;;;0.63;0.30;;;;;;;;;;5039326;28;20044;-78
2022/07/04 00:19:20;;;;;;;0.43;0.20;;;;;;;;;;5041667;28;20460;-78
2022/07/04 00:21:46;;;;;;;0.25;0.20;;;;;;;;;;5045206;28;20153;-77
2022/07/04 00:24:12;;;;;;;0.95;0.40;;;;;;;;;;5043190;28;20033;-78
2022/07/04 00:26:38;;;;;;;1.48;0.40;;;16.60;99.90;;;;;;5043516;28;20017;-78
2022/07/04 00:29:04;;;;;;;0.40;0.30;;;;;;;;;;5039032;28;20029;-78
2022/07/04 00:31:30;;;;;;;1.58;0.32;;;;;;;;;;5036668;28;20169;-78
2022/07/04 00:33:56;;;;;;;1.80;0.40;;;;;;;;;;5044675;28;20032;-77
2022/07/04 00:36:22;;;;;;;0.63;0.30;;;;;;;;;;5038656;28;20036;-79
2022/07/04 00:38:48;;;;;;;0.52;0.35;;;;;;;;;;5045204;28;20017;-78
2022/07/04 00:41:14;;;;;;;0.20;0.20;;;;;;;;;;5034863;28;20485;-79
2022/07/04 00:43:40;;;;;;;0.32;0.20;;;;;;;;;;5037185;28;20546;-78
2022/07/04 00:46:06;;;;;;;0.55;0.30;;;;;;;;;;5039901;28;20047;-78
2022/07/04 00:48:32;;;;;;;1.33;0.40;;;;;;;;;;5046516;28;20029;-77
2022/07/04 00:50:58;;;;;;;2.25;0.50;;;16.40;99.90;;;;;;5045325;28;20063;-78
2022/07/04 00:53:25;;;;;;;0.20;0.20;;;;;;;;;;5043999;28;20746;-78
2022/07/04 00:55:51;;;;;;;1.77;0.50;;;;;;;;;;5045324;28;20045;-78
2022/07/04 00:58:21;;;;;;;1.48;0.40;;;;;;;;;;5035842;28;20562;-78
2022/07/04 01:00:47;;;;;;;1.02;0.47;;;;;;;;;;5037080;28;20028;-79
2022/07/04 01:03:13;;;;;;;0.98;0.25;;;;;;;;;;5044717;28;20032;-79
2022/07/04 01:05:39;;;;;;;0.30;0.25;;;;;;;;;;5044527;28;20028;-79
2022/07/04 01:08:05;;;;;;;0.43;0.43;;;;;;;;;;5042943;28;22603;-78
2022/07/04 01:10:31;;;;;;;0.38;0.30;;;;;;;;;;5038173;28;20029;-77
2022/07/04 01:12:57;;;;;;;0.55;0.30;;;;;;;;;;5036395;28;20133;-78
2022/07/04 01:15:23;;;;;;;0.57;0.50;;;;;;;;;;5039839;28;20249;-78
2022/07/04 01:17:49;;;;;;;0.93;0.40;;;;;;;;;;5039879;28;20033;-77
2022/07/04 01:20:16;;;;;;;1.02;0.30;;;;;;;;;;5040819;28;20038;-77
2022/07/04 01:22:42;;;;;;;0.60;0.43;;;;;;;;;;5038196;28;20031;-78
2022/07/04 01:25:09;;;;;;;0.88;0.40;;;;;;;;;;5046866;28;20025;-78
2022/07/04 01:27:35;;;;;;;0.88;0.70;;;;;;;;;;5041492;28;20032;-77
2022/07/04 01:30:01;;;;;;;0.90;0.32;;;15.60;99.90;;;;;;5040786;28;20033;-78
2022/07/04 01:32:27;;;;;;;1.58;0.45;;;;;;;;;;5038473;28;20036;-77
2022/07/04 01:34:53;;;;;;;1.02;0.30;;;;;;;;;;5044711;28;20036;-76
2022/07/04 01:37:19;;;;;;;0.75;0.47;;;;;;;;;;5042548;28;20038;-77
2022/07/04 01:39:45;;;;;;;0.73;0.40;;;;;;;;;;5024922;28;20698;-78
2022/07/04 01:42:11;;;;;;;0.30;0.25;;;;;;;;;;5041167;28;20040;-78
2022/07/04 01:44:37;;;;;;;0.68;0.30;;;;;;;;;;5043157;28;20029;-77
2022/07/04 01:47:05;;;;;;;0.55;0.30;;;;;;;;;;5043397;28;20033;-77
2022/07/04 01:49:31;;;;;;;0.95;0.40;;;;;;;;;;5039493;28;20724;-77
2022/07/04 01:51:56;;;;;;;0.20;0.10;;;15.20;99.90;;;;;;5032426;28;20160;-78
2022/07/04 01:54:24;;;;;;;1.35;0.52;;;;;;;;;;5042519;28;20028;-77
2022/07/04 01:56:50;;;;;;;0.52;0.38;;;;;;;;;;5038513;28;20063;-77
2022/07/04 01:59:16;;;;;;;0.80;0.47;;;;;;;;;;5041071;28;20059;-78
2022/07/04 02:01:42;;;;;;;0.95;0.68;;;;;;;;;;5033298;28;20024;-77
2022/07/04 02:04:09;;;;;;;1.35;0.30;;;;;;;;;;5049555;28;20032;-77
2022/07/04 02:06:35;;;;;;;0.32;0.30;;;;;;;;;;5043532;28;20021;-78
2022/07/04 02:09:16;;;;;;;1.25;0.55;;;;;;;;;;5044133;28;20057;-77
2022/07/04 02:14:28;;;;;;;1.38;0.52;;;;;;;;;;5047665;28;20079;-77
2022/07/04 02:16:54;;;;;;;0.98;0.55;;;;;;;;;;5043383;28;20044;-78
2022/07/04 02:19:20;;;;;;;;;;;15.10;99.90;;;;;;5043360;28;20032;-77
2022/07/04 02:21:46;;;;;;;;;;;;;;;;;;5035169;28;19995;-77
2022/07/04 02:24:12;;;;;;;2.35;0.60;;;;;;;;;;5043603;28;19970;-78
2022/07/04 02:26:37;;;;;;;;;;;15.20;99.90;;;;;;5043924;28;20029;-78
2022/07/04 02:29:03;;;;;;;;;;;;;;;;;;5046025;28;19917;-78
2022/07/04 02:31:29;;;;;;;;;;;;;;;;;;5032779;28;19913;-78
2022/07/04 02:33:55;;;;;;;;;;;;;;;;;;5041177;28;19955;-78
2022/07/04 02:36:20;;;;;;;;;;;;;;;;;;5039653;28;19925;-77
2022/07/04 02:38:46;;;;;;;;;;;15.50;99.90;;;;;;5032162;28;20385;-77
2022/07/04 02:41:11;;;;;;;;;;;15.00;99.90;;;;;;5037983;28;19972;-77
2022/07/04 02:43:37;;;;;;;;;;;;;;;;;;5040757;28;20003;-78
2022/07/04 02:46:03;;;;;;;;;;;;;;;;;;5036875;28;19913;-78
2022/07/04 02:48:29;;;;;;;;;;;;;;;;;;5042708;28;20402;-77
2022/07/04 02:50:55;;;;;;;;;;;;;;;;;;5036668;28;19917;-77
2022/07/04 02:53:21;;;;;;;;;;;;;;;;;;5040932;28;19917;-76
2022/07/04 02:55:46;;;;;;;;;;;;;;;;;;5040163;28;20360;-77
2022/07/04 02:58:12;;;;;;;;;;;;;;;;;;5045634;28;19969;-78
2022/07/04 03:00:38;;;;;;;;;;;;;;;;;;5042201;28;19916;-77
2022/07/04 03:03:04;;;;;;;;;;;;;;;;;;5045056;28;19975;-78
2022/07/04 03:05:32;;;;;;;;;;;15.80;99.90;;;;;;5041181;28;19916;-77
2022/07/04 03:07:58;;;;;;;;;;;;;;;;;;5045229;28;21013;-79
2022/07/04 03:10:24;;;;;;;;;;;;;;;;;;5041917;28;19962;-78
2022/07/04 03:12:49;;;;;;;;;;;;;;;;;;5046956;28;20498;-78
2022/07/04 03:15:15;;;;;;;;;;;;;;;;;;5039452;28;19922;-78
2022/07/04 03:17:41;;;;;;;;;;;;;;;;;;5045696;28;19921;-78
2022/07/04 03:20:07;;;;;;;;;;;;;;;;;;5040602;28;20353;-78
2022/07/04 03:22:33;;;;;;;;;;;;;;;;;;5035057;28;19932;-77
2022/07/04 03:24:59;;;;;;;;;;;;;;;;;;5039040;28;19916;-77
2022/07/04 03:27:25;;;;;;;;;;;;;;;;;;5042303;28;21086;-78
2022/07/04 03:29:51;;;;;;;;;;;;;;;;;;5040671;28;19916;-78
2022/07/04 03:32:16;;;;;;;;;;;;;;;;;;5043583;28;19924;-79
2022/07/04 03:34:42;;;;;;;;;;;;;;;;;;5043660;28;19913;-77
2022/07/04 03:37:08;;;;;;;;;;;;;;;;;;5045229;28;20398;-79
2022/07/04 03:39:34;;;;;;;;;;;;;;;;;;5041873;28;19909;-77
2022/07/04 03:42:00;;;;;;;;;;;;;;;;;;5040595;28;19954;-78
2022/07/04 03:44:26;;;;;;;;;;;;;;;;;;5045261;28;20289;-79
2022/07/04 03:46:52;;;;;;;;;;;;;;;;;;5049258;28;19913;-78
2022/07/04 03:49:17;;;;;;;;;;;;;;;;;;5045280;28;19936;-78
2022/07/04 03:51:43;;;;;;;;;;;;;;;;;;5046724;28;20352;-78
2022/07/04 03:54:09;;;;;;;;;;;;;;;;;;5050797;28;20022;-77
2022/07/04 03:56:35;;;;;;;;;;;;;;;;;;5048900;28;19920;-78
2022/07/04 03:59:01;;;;;;;;;;;;;;;;;;5043543;28;19951;-77
2022/07/04 04:01:27;;;;;;;;;;;;;;;;;;5041442;28;20924;-77
2022/07/04 04:06:37;;;;;;;;;;;;;;;;;;5045856;28;20373;-77
2022/07/04 04:09:03;;;;;;;;;;;;;;;;;;5048139;28;19980;-78
2022/07/04 04:11:31;;;;;;;;;;;;;;;;;;5037863;28;19921;-78
2022/07/04 04:13:57;;;;;;;;;;;;;;;;;;5038201;28;20341;-78
2022/07/04 04:16:22;;;;;;;;;;;;;;;;;;5045536;28;19967;-78
2022/07/04 04:18:48;;;;;;;;;;;;;;;;;;5038351;28;19910;-79
2022/07/04 04:21:14;;;;;;;;;;;;;;;;;;5050031;28;19909;-78
2022/07/04 04:23:40;;;;;;;;;;;;;;;;;;5046575;28;19920;-77
2022/07/04 04:26:06;;;;;;;;;;;;;;;;;;5045347;28;21492;-78
2022/07/04 04:28:32;;;;;;;;;;;;;;;;;;5047644;28;19915;-78
2022/07/04 04:30:57;;;;;;;;;;;15.10;99.90;;;;;;5033184;28;19909;-76
2022/07/04 04:33:23;;;;;;;;;;;;;;;;;;5038672;28;19908;-76
2022/07/04 04:35:49;;;;;;;;;;;;;;;;;;5024149;28;19993;-76
2022/07/04 04:38:15;;;;;;;;;;;;;;;;;;5033643;28;19917;-77
2022/07/04 04:40:41;;;;;;;;;;;;;;;;;;5041270;28;19974;-75
2022/07/04 04:43:06;;;;;;;;;;;;;;;;;;5038046;28;19967;-77
2022/07/04 04:45:32;;;;;;;;;;;;;;;;;;5050883;28;19928;-77
2022/07/04 04:47:58;;;;;;;;;;;;;;;;;;5040105;28;20281;-78
2022/07/04 04:50:24;;;;;;;2.10;0.60;;;;;;;;;;5040263;28;19936;-78
2022/07/04 04:52:50;;;;;;;1.38;0.75;;;;;;;;;;5038122;28;20037;-78
2022/07/04 04:55:16;;;;;;;4.50;0.60;;;;;;;;;;5046581;28;20071;-78
2022/07/04 04:57:42;;;;;;;2.28;0.80;;;;;;;;;;5042395;28;20466;-79
2022/07/04 05:00:08;;;;;;;1.08;0.82;;;;;;;;;;5045224;28;20044;-78
2022/07/04 05:02:34;;;;;;;1.63;0.70;;;;;;;;;;5048875;28;20059;-79
2022/07/04 05:05:00;;;;;;;2.28;0.60;;;;;;;;;;5047715;28;20032;-78
2022/07/04 05:07:26;;;;;;;3.38;0.68;;;16.80;99.90;;;;;;5044350;28;20519;-80
2022/07/04 05:09:58;;;;;;;1.38;0.70;;;16.50;99.90;;;;;;5050326;28;20465;-79
2022/07/04 05:12:24;;;;;;;0.65;0.40;;;;;;;;;;5044940;28;20404;-76
2022/07/04 05:14:50;;;;;;;2.85;0.50;;;;;;;;;;5054817;28;20033;-78
2022/07/04 05:17:16;;;;;;;1.08;0.63;;;;;;;;;;5044746;28;20112;-77
2022/07/04 05:19:42;;;;;;;2.75;0.75;;;;;;;;;;5034975;28;20017;-79
2022/07/04 05:22:07;;;;;;;;;;;17.40;99.90;;;;;;5037957;28;20741;-80
2022/07/04 05:24:33;;;;;;;;;;;17.50;99.90;;;;;;5045646;28;20422;-79
2022/07/04 05:26:58;;;;;;;;;;;;;;;;;;5056250;28;19909;-77
2022/07/04 05:29:24;;;;;;;;;;;;;;;;;;5056915;28;19908;-77
2022/07/04 05:31:50;;;;;;;;;;;17.70;99.90;;;;;;5050934;28;20333;-77
2022/07/04 05:34:18;;;;;;;;;;;17.60;99.90;;;;;;5058991;28;19904;-77
2022/07/04 05:36:44;;;;;;;;;;;;;;;;;;5049857;28;20316;-77
2022/07/04 05:39:09;;;;;;;;;;;17.60;99.90;;;;;;5054622;28;19916;-79
2022/07/04 05:41:35;;;;;;;;;;;;;;;;;;5049672;28;19935;-78
2022/07/04 05:44:01;;;;;;;;;;;17.60;99.90;;;;;;5053476;28;19917;-78
2022/07/04 05:46:26;;;;;;;;;;;17.80;99.90;;;;;;5051208;28;20003;-78
2022/07/04 05:48:52;;;;;;;;;;;17.90;99.90;;;;;;5049049;28;20020;-78
2022/07/04 05:51:17;;;;;;;;;;;;;;;;;;5048337;28;19915;-79
2022/07/04 05:53:43;;;;;;;;;;;18.00;99.90;;;;;;5049075;28;19908;-78
2022/07/04 05:56:09;;;;;;;;;;;;;;;;;;5054863;28;19991;-77
2022/07/04 05:58:35;;;;;;;0.80;0.60;;;;;;;;;;5049294;28;19909;-77
2022/07/04 06:01:01;;;;;;;;;;;;;;;;;;5054075;28;20055;-78
2022/07/04 06:03:27;;;;;;;0.95;0.55;;;;;;;;;;5053947;28;19909;-78
2022/07/04 06:05:53;;;;;;;1.70;0.50;;;;;;;;;;5053160;28;20075;-78
2022/07/04 06:08:19;;;;;;;1.48;0.68;;;;;;;;;;5046501;28;20542;-78
2022/07/04 06:10:46;;;;;;;2.50;0.60;;;18.80;99.90;;;;;;5046399;28;20418;-77
2022/07/04 06:13:12;;;;;;;1.00;0.60;;;;;;;;;;5045257;28;20628;-78
2022/07/04 06:15:38;;;;;;;1.15;0.52;;;;;;;;;;5049015;28;20029;-78
2022/07/04 06:18:04;;;;;;;1.02;0.40;;;;;;;;;;5049609;28;20065;-78
2022/07/04 06:20:30;;;;;;;1.27;1.08;;;;;;;;;;5053628;28;20031;-78
2022/07/04 06:22:56;;;;;;;0.43;0.35;;;;;;;;;;5049171;28;20037;-77
2022/07/04 06:25:22;;;;;;;1.55;0.65;;;;;;;;;;5056385;28;20044;-77
2022/07/04 06:27:49;;;;;;;1.70;0.47;;;;;;;;;;5058389;28;20478;-78
2022/07/04 06:30:16;;;;;;;11.88;3.53;;;;;;;;;;5051875;28;20212;-78
2022/07/04 06:32:42;;;;;;;;;;;;;;;;;;5054220;28;20031;-77
2022/07/04 06:37:51;;;;;;;;;;;;;;;;;;5052629;28;19923;-77
2022/07/04 06:40:17;;;;;;;;;;;25.20;95.40;;;;;;5053714;28;19924;-78
2022/07/04 06:42:42;;;;;;;;;;;25.90;93.10;;;;;;5052992;28;20310;-77
2022/07/04 06:45:08;;;;;;;;;;;26.70;90.90;;;;;;5049776;28;21886;-78
2022/07/04 06:47:34;;;;;;;;;;;27.50;83.30;;;;;;5055835;28;19982;-79
2022/07/04 06:50:00;;;;;;;1.10;0.40;;;;;;;;;;5055638;28;19917;-79
2022/07/04 06:52:26;;;;;;;0.30;0.30;;;;;;;;;;5050028;28;20026;-78
2022/07/04 06:54:52;;;;;;;0.88;0.40;;;;;;;;;;5056580;28;20619;-79
2022/07/04 06:57:17;;;;;;;1.85;0.20;;;;;;;;;;5057587;28;20105;-79
2022/07/04 06:59:43;;;;;;;;;;;32.60;60.00;;;;;;5053705;28;20048;-78
2022/07/04 07:02:08;;;;;;;;;;;33.50;53.50;;;;;;5051331;28;20412;-80
2022/07/04 07:04:34;;;;;;;;;;;34.00;54.80;;;;;;5058407;28;19998;-79
2022/07/04 07:06:59;;;;;;;;;;;34.70;50.30;;;;;;5053209;28;19914;-77
2022/07/04 07:09:25;;;;;;;;;;;35.90;47.70;;;;;;5056527;28;19908;-78
2022/07/04 07:11:50;;;;;;;;;;;37.20;46.30;;;;;;5049423;28;19951;-78
2022/07/04 07:14:16;;;;;;;;;;;36.80;44.10;;;;;;5053673;28;19908;-78
2022/07/04 07:16:41;;;;;;;1.20;0.38;;;;;;;;;;5043278;28;20007;-79
2022/07/04 07:19:07;;;;;;;0.70;0.30;;;;;;;;;;5055411;28;20144;-77
2022/07/04 07:21:33;;;;;;;3.10;0.43;;;;;;;;;;5055372;28;20461;-77
2022/07/04 07:24:00;;;;;;;0.55;0.30;;;;;;;;;;5056055;28;20112;-79
2022/07/04 07:26:26;;;;;;;0.20;0.15;;;;;;;;;;5059498;28;20028;-78
2022/07/04 07:28:52;;;;;;;0.40;0.22;;;;;;;;;;5050849;28;20520;-77
2022/07/04 07:31:17;;;;;;;1.90;0.30;;;36.80;45.70;;;;;;5048202;28;20028;-78
2022/07/04 07:33:43;;;;;;;1.70;0.32;;;;;;;;;;5061994;28;20465;-77
2022/07/04 07:36:09;;;;;;;0.60;0.17;;;;;;;;;;5053570;28;23616;-78
2022/07/04 07:38:35;;;;;;;;;;;36.00;41.80;;;;;;5058607;28;20024;-78
2022/07/04 07:41:01;;;;;;;1.13;0.45;;;;;;;;;;5056127;28;19943;-78
2022/07/04 07:43:26;;;;;;;;;;;35.90;43.00;;;;;;5055251;28;20051;-78
2022/07/04 07:45:52;;;;;;;;;;;34.80;42.80;;;;;;5054015;28;19947;-78
2022/07/04 07:48:18;;;;;;;;;;;;;;;;;;5053983;28;19952;-77
2022/07/04 07:50:44;;;;;;;;;;;;;;;;;;5055947;28;19936;-77
2022/07/04 07:53:09;;;;;;;;;;;33.10;47.40;;;;;;5054309;28;19916;-78
2022/07/04 07:55:34;;;;;;;;;;;32.90;46.80;;;;;;5045629;28;19905;-76
2022/07/04 07:58:01;;;;;;;;;;;32.00;48.60;;;;;;5046663;28;19975;-76
2022/07/04 08:00:27;;;;;;;;;;;31.60;49.80;;;;;;5050099;28;19909;-77
2022/07/04 08:05:39;;;;;;;;;;;31.60;48.70;;;;;;5049793;28;19919;-78
2022/07/04 08:08:07;;;;;;;;;;;31.60;48.90;;;;;;5061601;28;19908;-78
2022/07/04 08:10:32;;;;;;;;;;;30.90;48.70;;;;;;5050144;28;20047;-78
2022/07/04 08:12:58;;;;;;;;;;;30.00;49.40;;;;;;5048419;28;19909;-78
2022/07/04 08:15:24;;;;;;;;;;;29.40;50.90;;;;;;5059914;28;19959;-76
2022/07/04 08:17:50;;;;;;;;;;;28.60;51.80;;;;;;5061361;28;19916;-79
2022/07/04 08:20:16;;;;;;;;;;;29.00;53.60;;;;;;5054251;28;19948;-77
2022/07/04 08:22:41;;;;;;;;;;;28.00;55.50;;;;;;5052879;28;19909;-79
2022/07/04 08:25:07;;;;;;;;;;;28.00;55.00;;;;;;5058887;28;19927;-77
2022/07/04 08:27:32;;;;;;;;;;;29.50;56.80;;;;;;5052692;28;19909;-78
2022/07/04 08:29:58;;;;;;;;;;;29.00;55.40;;;;;;5054172;28;19904;-78
2022/07/04 08:32:23;;;;;;;;;;;29.40;54.90;;;;;;5047391;28;20018;-79
2022/07/04 08:34:49;;;;;;;;;;;;;;;;;;5048865;28;20502;-77
2022/07/04 08:37:15;;;;;;;;;;;30.80;53.10;;;;;;5047027;28;19916;-77
2022/07/04 08:39:40;;;;;;;;;;;29.50;51.20;;;;;;5050078;28;20111;-80
2022/07/04 08:42:08;;;;;;;;;;;30.20;52.20;;;;;;5051773;28;19909;-76
2022/07/04 08:44:38;;;;;;;;;;;30.30;52.00;;;;;;5057474;28;19954;-77
2022/07/04 08:47:04;;;;;;;;;;;30.50;51.20;;;;;;5048095;28;21090;-78
2022/07/04 08:49:31;;;;;;;;;;;;;;;;;;5049665;28;19924;-77
2022/07/04 08:52:02;;;;;;;;;;;33.60;47.10;;;;;;5049036;28;19909;-78
2022/07/04 08:59:58;;;;;;;;;;;35.00;41.10;;;;;;5050735;28;19916;-78
2022/07/04 09:02:26;;;;;;;;;;;35.60;42.00;;;;;;5055376;28;19920;-77
2022/07/04 09:04:51;;;;;;;;;;;34.90;40.70;;;;;;5051416;28;19915;-78
2022/07/04 09:07:18;;;;;;;;;;;34.50;42.20;;;;;;5055813;28;19908;-78
2022/07/04 09:09:44;;;;;;;;;;;34.60;41.80;;;;;;5055582;28;19939;-78
2022/07/04 09:12:10;;;;;;;;;;;34.90;41.50;;;;;;5061042;28;19920;-78
2022/07/04 09:14:35;;;;;;;;;;;35.10;40.10;;;;;;5053689;28;19913;-79
2022/07/04 09:17:01;;;;;;;;;;;36.10;40.20;;;;;;5059245;28;20392;-79
2022/07/04 09:19:26;;;;;;;;;;;36.10;40.00;;;;;;5051374;28;19913;-79
2022/07/04 09:21:52;;;;;;;;;;;35.00;39.70;;;;;;5044617;28;19917;-79
2022/07/04 09:24:37;;;;;;;;;;;37.10;38.90;;;;;;5054254;28;20256;-78
2022/07/04 09:27:03;;;;;;;;;;;37.70;40.00;;;;;;5050417;28;19975;-78
2022/07/04 09:29:28;;;;;;;;;;;35.90;38.50;;;;;;5054768;28;19909;-78
2022/07/04 09:31:54;;;;;;;;;;;35.80;40.50;;;;;;5049289;28;19958;-78
2022/07/04 09:34:20;;;;;;;;;;;34.90;39.90;;;;;;5054190;28;19912;-79
2022/07/04 09:36:52;;;;;;;;;;;34.00;42.10;;;;;;5056182;28;19917;-77
2022/07/04 09:39:20;;;;;;;;;;;33.00;43.80;;;;;;5057163;28;19914;-78
2022/07/04 09:41:51;;;;;;;;;;;31.70;47.00;;;;;;5060147;28;20384;-77
2022/07/04 09:44:17;;;;;;;;;;;30.20;46.90;;;;;;5055466;28;19913;-79
2022/07/04 09:46:43;;;;;;;;;;;29.50;48.40;;;;;;5049025;28;20349;-79
2022/07/04 09:49:10;;;;;;;;;;;29.00;49.90;;;;;;5056345;28;19915;-77
2022/07/04 09:51:36;;;;;;;;;;;;;;;;;;5051429;28;19909;-78
2022/07/04 09:54:21;;;;;;;;;;;28.20;51.10;;;;;;5057090;28;19921;-77
2022/07/04 09:56:47;;;;;;;;;;;;;;;;;;5046580;28;19971;-77
2022/07/04 09:59:12;;;;;;;;;;;27.90;51.00;;;;;;5054860;28;20388;-79
2022/07/04 10:01:39;;;;;;;;;;;27.70;51.40;;;;;;5054543;28;19909;-78
2022/07/04 10:04:05;;;;;;;;;;;;;;;;;;5054040;28;19908;-79
2022/07/04 10:06:32;;;;;;;;;;;28.20;52.60;;;;;;5052270;28;19975;-78
2022/07/04 10:08:57;;;;;;;;;;;;;;;;;;5044106;28;19983;-80
2022/07/04 10:11:32;;;;;;;;;;;27.50;53.70;;;;;;5056387;28;19909;-78
2022/07/04 10:13:57;;;;;;;;;;;27.60;54.90;;;;;;5052442;28;19909;-78
2022/07/04 10:16:23;;;;;;;;;;;27.50;53.90;;;;;;5055467;28;20332;-77
2022/07/04 10:18:48;;;;;;;;;;;27.40;54.70;;;;;;5055441;28;19924;-78
2022/07/04 10:21:14;;;;;;;;;;;28.40;54.30;;;;;;5057353;28;20014;-77
2022/07/04 10:23:40;;;;;;;;;;;27.30;53.90;;;;;;5058406;28;19952;-76
2022/07/04 10:26:05;;;;;;;;;;;27.60;55.00;;;;;;5059182;28;19912;-76
2022/07/04 10:28:32;;;;;;;;;;;27.30;53.90;;;;;;5059126;28;20002;-78
2022/07/04 10:30:58;;;;;;;;;;;;;;;;;;5055007;28;20308;-75
2022/07/04 10:33:25;;;;;;;;;;;27.20;57.20;;;;;;5055911;28;19916;-78
2022/07/04 10:35:54;;;;;;;;;;;26.90;56.40;;;;;;5053904;28;20309;-79
2022/07/04 10:38:30;;;;;;;;;;;26.70;58.10;;;;;;5045041;28;20039;-78
2022/07/04 10:40:57;;;;;;;;;;;26.70;58.80;;;;;;5050669;28;19915;-77
2022/07/04 10:43:25;;;;;;;;;;;26.80;57.80;;;;;;5049338;28;19912;-78
2022/07/04 10:45:52;;;;;;;;;;;28.00;57.70;;;;;;5052251;28;19913;-77
2022/07/04 10:48:24;;;;;;;;;;;27.40;54.50;;;;;;5054704;28;20028;-78
2022/07/04 10:50:58;;;;;;;;;;;27.80;54.90;;;;;;5040255;28;20386;-78
2022/07/04 10:53:24;;;;;;;;;;;27.90;56.10;;;;;;5061491;28;19953;-78
2022/07/04 10:55:49;;;;;;;;;;;29.00;56.00;;;;;;5057975;28;19979;-78
2022/07/04 10:58:35;;;;;;;;;;;28.60;54.50;;;;;;5044217;28;19913;-79
2022/07/04 11:01:13;;;;;;;;;;;28.50;55.50;;;;;;5050525;28;20340;-79
2022/07/04 11:03:46;;;;;;;;;;;29.90;56.40;;;;;;5052520;28;19909;-78
2022/07/04 11:06:42;;;;;;;;;;;28.60;52.60;;;;;;5053919;28;19993;-78
2022/07/04 11:09:18;;;;;;;;;;;28.50;55.20;;;;;;5051406;28;20015;-78
2022/07/04 11:11:57;;;;;;;;;;;28.60;55.00;;;;;;5057710;28;19908;-78
2022/07/04 11:14:33;;;;;;;;;;;28.70;56.30;;;;;;5056022;28;20368;-79
2022/07/04 11:16:59;;;;;;;;;;;29.50;57.10;;;;;;5049384;28;19925;-80
2022/07/04 11:19:25;;;;;;;;;;;29.40;57.50;;;;;;5055517;28;19947;-79
2022/07/04 11:21:50;;;;;;;;;;;29.10;56.70;;;;;;5046624;28;20000;-78
2022/07/04 11:24:16;;;;;;;;;;;28.60;57.70;;;;;;5045405;28;19989;-79
2022/07/04 11:26:42;;;;;;;;;;;28.30;58.60;;;;;;5054603;28;19919;-79
2022/07/04 11:29:07;;;;;;;;;;;28.70;60.00;;;;;;5044641;28;19912;-78
2022/07/04 11:31:40;;;;;;;;;;;28.30;58.80;;;;;;5043571;28;19920;-77
2022/07/04 11:34:06;;;;;;;;;;;28.40;58.10;;;;;;5043279;28;20349;-79
2022/07/04 11:36:31;;;;;;;;;;;28.20;57.40;;;;;;5048494;28;20017;-79
2022/07/04 11:38:58;;;;;;;;;;;28.70;58.00;;;;;;5048264;28;19935;-78
2022/07/04 11:47:03;;;;;;;;;;;28.30;57.30;;;;;;5040416;28;20277;-77
2022/07/04 11:49:28;;;;;;;;;;;28.30;61.00;;;;;;5039607;28;20007;-78
2022/07/04 11:51:55;;;;;;;;;;;28.90;60.20;;;;;;5048744;28;19999;-78
2022/07/04 11:54:21;;;;;;;;;;;28.30;57.50;;;;;;5034288;28;20322;-79
2022/07/04 11:56:46;;;;;;;;;;;28.70;58.00;;;;;;5047993;28;19920;-79
2022/07/04 11:59:13;;;;;;;;;;;28.50;58.40;;;;;;5042087;28;19955;-78
2022/07/04 12:01:39;;;;;;;;;;;28.50;56.80;;;;;;5038322;28;19909;-76
2022/07/04 12:04:15;;;;;;;;;;;29.50;57.70;;;;;;5039285;28;19920;-79
2022/07/04 12:06:41;;;;;;;;;;;28.30;59.50;;;;;;5045249;28;19913;-79
2022/07/04 12:09:06;;;;;;;;;;;28.30;55.70;;;;;;5039125;28;19978;-78
2022/07/04 12:11:51;;;;;;;;;;;29.30;56.30;;;;;;5044253;28;19909;-77
2022/07/04 12:14:16;;;;;;;;;;;27.90;56.80;;;;;;5050517;28;19912;-78
2022/07/04 12:16:42;;;;;;;;;;;28.10;56.60;;;;;;5036822;28;19931;-78
2022/07/04 12:19:10;;;;;;;;;;;28.30;56.70;;;;;;5038189;28;20281;-78
2022/07/04 12:21:36;;;;;;;;;;;28.80;56.20;;;;;;5043677;28;19954;-78
2022/07/04 12:24:04;;;;;;;;;;;28.10;54.90;;;;;;5047400;28;19912;-79
2022/07/04 12:26:30;;;;;;;;;;;;;;;;;;5047357;28;19921;-79
2022/07/04 12:28:58;;;;;;;;;;;28.10;55.20;;;;;;5047315;28;19992;-78
2022/07/04 12:31:39;;;;;;;;;;;28.10;56.80;;;;;;5050184;28;20409;-77
2022/07/04 12:34:13;;;;;;;;;;;29.20;58.50;;;;;;5043823;28;19999;-77
2022/07/04 12:37:04;;;;;;;;;;;28.10;55.10;;;;;;5046070;28;19917;-78
2022/07/04 12:39:34;;;;;;;;;;;27.80;53.80;;;;;;5047035;28;19956;-77
2022/07/04 12:42:19;;;;;;;;;;;28.00;55.50;;;;;;5038163;28;19920;-78
2022/07/04 12:44:45;;;;;;;;;;;29.00;56.60;;;;;;5044095;28;19908;-77
2022/07/04 12:47:11;;;;;;;;;;;28.60;55.60;;;;;;5038148;28;20123;-77
2022/07/04 12:49:37;;;;;;;;;;;28.60;55.80;;;;;;5043031;28;20060;-79
2022/07/04 12:52:10;;;;;;;;;;;28.20;54.40;;;;;;5050219;28;19955;-80
2022/07/04 12:54:36;;;;;;;;;;;28.20;56.40;;;;;;5050772;28;19915;-79
2022/07/04 12:57:05;;;;;;;;;;;28.70;54.70;;;;;;5044156;28;20003;-79
2022/07/04 12:59:31;;;;;;;;;;;28.90;55.20;;;;;;5042104;28;19919;-78
2022/07/04 13:01:56;;;;;;;;;;;28.40;54.10;;;;;;5034438;28;19908;-78
2022/07/04 13:04:22;;;;;;;;;;;28.00;55.50;;;;;;5039650;28;19909;-77
2022/07/04 13:06:47;;;;;;;;;;;28.20;56.50;;;;;;5041557;28;19920;-76
2022/07/04 13:09:13;;;;;;;;;;;28.00;56.00;;;;;;5046862;28;19912;-76
2022/07/04 13:14:22;;;;;;;;;;;28.30;53.50;;;;;;5039010;28;19915;-78
2022/07/04 13:16:47;;;;;;;;;;;28.80;54.60;;;;;;5034427;28;19917;-75
2022/07/04 13:19:13;;;;;;;;;;;28.70;55.20;;;;;;5048775;28;19916;-76
2022/07/04 13:21:39;;;;;;;;;;;;;;;;;;5044319;28;19908;-78
2022/07/04 13:24:04;;;;;;;;;;;28.30;52.10;;;;;;5045775;28;19971;-76
2022/07/04 13:26:32;;;;;;;;;;;28.20;51.20;;;;;;5048358;28;19908;-76
2022/07/04 13:28:57;;;;;;;;;;;27.90;50.40;;;;;;5045795;28;20298;-76
2022/07/04 13:31:23;;;;;;;;;;;27.80;51.70;;;;;;5040260;28;19909;-76
2022/07/04 13:33:48;;;;;;;;;;;27.70;52.20;;;;;;5045054;28;19912;-77
2022/07/04 13:36:14;;;;;;;;;;;27.60;52.50;;;;;;5045005;28;19912;-76
2022/07/04 13:38:40;;;;;;;;;;;27.80;52.90;;;;;;5049359;28;19912;-77
2022/07/04 13:41:06;;;;;;;;;;;27.60;51.50;;;;;;5044599;28;19924;-76
2022/07/04 13:43:31;;;;;;;;;;;27.30;52.40;;;;;;5037770;28;20429;-77
2022/07/04 13:45:57;;;;;;;;;;;27.30;52.40;;;;;;5045875;28;19912;-77
2022/07/04 13:48:22;;;;;;;;;;;27.40;51.80;;;;;;5048840;28;19913;-77
2022/07/04 13:50:48;;;;;;;;;;;27.50;50.80;;;;;;5050486;28;20279;-76
2022/07/04 13:53:13;;;;;;;;;;;27.60;50.40;;;;;;5041300;28;19916;-76
2022/07/04 13:55:39;;;;;;;;;;;27.50;54.90;;;;;;5037954;28;20459;-76
2022/07/04 13:58:05;;;;;;;;;;;27.50;52.30;;;;;;5042131;28;19925;-77
2022/07/04 14:00:31;;;;;;;;;;;27.30;51.20;;;;;;5043376;28;19909;-76
2022/07/04 14:02:57;;;;;;;;;;;27.60;51.00;;;;;;5045877;28;20285;-76
2022/07/04 14:05:24;;;;;;;;;;;27.30;50.90;;;;;;5044483;28;20746;-78
2022/07/04 14:07:49;;;;;;;;;;;;;;;;;;5046247;28;19936;-76
2022/07/04 14:10:15;;;;;;;;;;;27.40;47.80;;;;;;5043467;28;20396;-77
2022/07/04 14:12:40;;;;;;;;;;;26.40;48.80;;;;;;5043553;28;19913;-77
2022/07/04 14:15:06;;;;;;;;;;;27.20;49.60;;;;;;5035521;28;19909;-76
2022/07/04 14:17:32;;;;;;;;;;;27.10;49.00;;;;;;5028651;28;19971;-77
2022/07/04 14:19:57;;;;;;;;;;;27.10;49.00;;;;;;5037934;28;19915;-77
2022/07/04 14:22:23;;;;;;;;;;;27.20;50.00;;;;;;5035552;28;19908;-76
2022/07/04 14:24:48;;;;;;;;;;;27.30;49.90;;;;;;5031155;28;19948;-77
2022/07/04 14:27:14;;;;;;;;;;;27.30;49.50;;;;;;5036758;28;19970;-77
2022/07/04 14:29:40;;;;;;;;;;;27.50;46.10;;;;;;5033250;28;19909;-76
2022/07/04 14:32:06;;;;;;;;;;;27.30;45.60;;;;;;5043889;28;20031;-77
2022/07/04 14:34:32;;;;;;;;;;;28.50;47.80;;;;;;5036056;28;19921;-77
2022/07/04 14:36:57;;;;;;;;;;;27.10;45.20;;;;;;5042930;28;19916;-77
2022/07/04 14:39:23;;;;;;;;;;;;;;;;;;5039457;28;19923;-78
2022/07/04 14:41:49;;;;;;;;;;;27.30;45.00;;;;;;5044908;28;19934;-77
2022/07/04 14:44:14;;;;;;;;;;;27.40;46.10;;;;;;5041365;28;19922;-77
2022/07/04 14:46:40;;;;;;;;;;;27.90;46.10;;;;;;5037648;28;19917;-78
2022/07/04 14:49:06;;;;;;;;;;;29.10;46.70;;;;;;5039475;28;20007;-77
2022/07/04 14:51:32;;;;;;;;;;;27.40;45.00;;;;;;5034178;28;20019;-74
2022/07/04 14:53:57;;;;;;;;;;;27.40;45.10;;;;;;5039392;28;19909;-75
2022/07/04 14:56:23;;;;;;;;;;;28.20;46.40;;;;;;5048361;28;19917;-78
2022/07/04 14:58:49;;;;;;;;;;;;;;;;;;5047544;28;20319;-77
2022/07/04 15:01:14;;;;;;;;;;;28.20;45.70;;;;;;5044350;28;20708;-77
2022/07/04 15:03:40;;;;;;;;;;;27.30;43.10;;;;;;5044105;28;19951;-76
2022/07/04 15:06:05;;;;;;;;;;;27.30;44.60;;;;;;5046807;28;19909;-77
2022/07/04 15:08:30;;;;;;;;;;;27.40;45.30;;;;;;5039801;28;20443;-79
2022/07/04 15:10:56;;;;;;;;;;;27.70;45.30;;;;;;5031179;28;19923;-78